sensor_id;sensor_type;location;lat;lon;timestamp;temperature;humidity
9215;DHT22;4642;51.364;6.788;2023-09-30T00:00:46;11.60;99.90
9215;DHT22;4642;51.364;6.788;2023-09-30T00:03:12;11.60;99.90
9215;DHT22;4642;51.364;6.788;2023-09-30T00:05:37;11.60;99.90
9215;DHT22;4642;51.364;6.788;2023-09-30T00:08:04;11.60;99.90
9215;DHT22;4642;51.364;6.788;2023-09-30T00:10:30;11.60;99.90
9215;DHT22;4642;51.364;6.788;2023-09-30T00:12:56;11.60;99.90
9215;DHT22;4642;51.364;6.788;2023-09-30T00:15:22;11.60;99.90
9215;DHT22;4642;51.364;6.788;2023-09-30T00:17:48;11.50;99.90
9215;DHT22;4642;51.364;6.788;2023-09-30T00:20:14;11.50;99.90
9215;DHT22;4642;51.364;6.788;2023-09-30T00:22:43;11.50;99.90
9215;DHT22;4642;51.364;6.788;2023-09-30T00:25:09;11.60;99.90
9215;DHT22;4642;51.364;6.788;2023-09-30T00:27:35;11.50;99.90
9215;DHT22;4642;51.364;6.788;2023-09-30T00:30:01;11.50;99.90
9215;DHT22;4642;51.364;6.788;2023-09-30T00:32:26;11.50;99.90
9215;DHT22;4642;51.364;6.788;2023-09-30T00:34:52;11.50;99.90
9215;DHT22;4642;51.364;6.788;2023-09-30T00:37:19;11.50;99.90
9215;DHT22;4642;51.364;6.788;2023-09-30T00:39:44;11.50;99.90
9215;DHT22;4642;51.364;6.788;2023-09-30T00:42:10;11.50;99.90
9215;DHT22;4642;51.364;6.788;2023-09-30T00:44:36;11.50;99.90
9215;DHT22;4642;51.364;6.788;2023-09-30T00:47:02;11.50;99.90
9215;DHT22;4642;51.364;6.788;2023-09-30T00:49:28;11.50;99.90
9215;DHT22;4642;51.364;6.788;2023-09-30T00:51:55;11.50;99.90
9215;DHT22;4642;51.364;6.788;2023-09-30T00:54:21;11.50;99.90
9215;DHT22;4642;51.364;6.788;2023-09-30T00:56:50;11.50;99.90
9215;DHT22;4642;51.364;6.788;2023-09-30T00:59:16;11.50;99.90
9215;DHT22;4642;51.364;6.788;2023-09-30T01:01:43;11.50;99.90
9215;DHT22;4642;51.364;6.788;2023-09-30T01:04:10;11.50;99.90
9215;DHT22;4642;51.364;6.788;2023-09-30T01:06:36;11.50;99.90
9215;DHT22;4642;51.364;6.788;2023-09-30T01:09:02;11.50;99.90
9215;DHT22;4642;51.364;6.788;2023-09-30T01:11:28;11.50;99.90
9215;DHT22;4642;51.364;6.788;2023-09-30T01:13:53;11.50;99.90
9215;DHT22;4642;51.364;6.788;2023-09-30T01:16:20;11.50;99.90
9215;DHT22;4642;51.364;6.788;2023-09-30T01:18:46;11.50;99.90
9215;DHT22;4642;51.364;6.788;2023-09-30T01:21:12;11.50;99.90
9215;DHT22;4642;51.364;6.788;2023-09-30T01:23:38;11.50;99.90
9215;DHT22;4642;51.364;6.788;2023-09-30T01:26:07;11.50;99.90
9215;DHT22;4642;51.364;6.788;2023-09-30T01:28:34;11.60;99.90
9215;DHT22;4642;51.364;6.788;2023-09-30T01:30:59;11.60;99.90
9215;DHT22;4642;51.364;6.788;2023-09-30T01:33:26;11.60;99.90
9215;DHT22;4642;51.364;6.788;2023-09-30T01:35:51;11.60;99.90
9215;DHT22;4642;51.364;6.788;2023-09-30T01:38:17;11.60;99.90
9215;DHT22;4642;51.364;6.788;2023-09-30T01:40:43;11.60;99.90
9215;DHT22;4642;51.364;6.788;2023-09-30T01:43:09;11.70;99.90
9215;DHT22;4642;51.364;6.788;2023-09-30T01:45:34;11.70;99.90
9215;DHT22;4642;51.364;6.788;2023-09-30T01:48:01;11.70;99.90
9215;DHT22;4642;51.364;6.788;2023-09-30T01:50:27;11.70;99.90
9215;DHT22;4642;51.364;6.788;2023-09-30T01:52:53;11.60;99.90
9215;DHT22;4642;51.364;6.788;2023-09-30T01:55:18;11.60;99.90
9215;DHT22;4642;51.364;6.788;2023-09-30T01:57:44;11.80;99.90
9215;DHT22;4642;51.364;6.788;2023-09-30T02:00:10;11.50;99.90
9215;DHT22;4642;51.364;6.788;2023-09-30T02:02:35;11.60;99.90
9215;DHT22;4642;51.364;6.788;2023-09-30T02:05:02;11.60;99.90
9215;DHT22;4642;51.364;6.788;2023-09-30T02:07:28;11.60;99.90
9215;DHT22;4642;51.364;6.788;2023-09-30T02:09:54;11.50;99.90
9215;DHT22;4642;51.364;6.788;2023-09-30T02:12:20;11.50;99.90
9215;DHT22;4642;51.364;6.788;2023-09-30T02:14:46;11.40;99.90
9215;DHT22;4642;51.364;6.788;2023-09-30T02:17:11;11.40;99.90
9215;DHT22;4642;51.364;6.788;2023-09-30T02:19:38;11.40;99.90
9215;DHT22;4642;51.364;6.788;2023-09-30T02:22:06;11.40;99.90
9215;DHT22;4642;51.364;6.788;2023-09-30T02:24:32;11.30;99.90
9215;DHT22;4642;51.364;6.788;2023-09-30T02:26:57;11.30;99.90
9215;DHT22;4642;51.364;6.788;2023-09-30T02:29:23;11.30;99.90
9215;DHT22;4642;51.364;6.788;2023-09-30T02:31:49;11.40;99.90
9215;DHT22;4642;51.364;6.788;2023-09-30T02:34:14;11.20;99.90
9215;DHT22;4642;51.364;6.788;2023-09-30T02:36:40;11.20;99.90
9215;DHT22;4642;51.364;6.788;2023-09-30T02:39:07;11.10;99.90
9215;DHT22;4642;51.364;6.788;2023-09-30T02:41:34;11.10;99.90
9215;DHT22;4642;51.364;6.788;2023-09-30T02:44:00;11.10;99.90
9215;DHT22;4642;51.364;6.788;2023-09-30T02:46:26;11.10;99.90
9215;DHT22;4642;51.364;6.788;2023-09-30T02:48:53;11.10;99.90
9215;DHT22;4642;51.364;6.788;2023-09-30T02:51:19;11.10;99.90
9215;DHT22;4642;51.364;6.788;2023-09-30T02:53:44;11.10;99.90
9215;DHT22;4642;51.364;6.788;2023-09-30T02:56:10;11.10;99.90
9215;DHT22;4642;51.364;6.788;2023-09-30T02:58:35;11.10;99.90
9215;DHT22;4642;51.364;6.788;2023-09-30T03:01:01;11.00;99.90
9215;DHT22;4642;51.364;6.788;2023-09-30T03:03:27;11.00;99.90
9215;DHT22;4642;51.364;6.788;2023-09-30T03:05:53;10.90;99.90
9215;DHT22;4642;51.364;6.788;2023-09-30T03:08:19;10.80;99.90
9215;DHT22;4642;51.364;6.788;2023-09-30T03:10:45;10.80;99.90
9215;DHT22;4642;51.364;6.788;2023-09-30T03:13:11;10.80;99.90
9215;DHT22;4642;51.364;6.788;2023-09-30T03:15:37;10.80;99.90
9215;DHT22;4642;51.364;6.788;2023-09-30T03:18:04;10.80;99.90
9215;DHT22;4642;51.364;6.788;2023-09-30T03:20:30;10.70;99.90
9215;DHT22;4642;51.364;6.788;2023-09-30T03:22:57;10.70;99.90
9215;DHT22;4642;51.364;6.788;2023-09-30T03:25:22;10.80;99.90
9215;DHT22;4642;51.364;6.788;2023-09-30T03:27:49;10.70;99.90
9215;DHT22;4642;51.364;6.788;2023-09-30T03:30:15;10.60;99.90
9215;DHT22;4642;51.364;6.788;2023-09-30T03:32:42;10.60;99.90
9215;DHT22;4642;51.364;6.788;2023-09-30T03:35:08;10.60;99.90
9215;DHT22;4642;51.364;6.788;2023-09-30T03:37:36;10.60;99.90
9215;DHT22;4642;51.364;6.788;2023-09-30T03:40:03;10.60;99.90
9215;DHT22;4642;51.364;6.788;2023-09-30T03:42:39;10.50;99.90
9215;DHT22;4642;51.364;6.788;2023-09-30T03:45:06;10.50;99.90
9215;DHT22;4642;51.364;6.788;2023-09-30T03:47:37;10.50;99.90
9215;DHT22;4642;51.364;6.788;2023-09-30T03:50:04;10.60;99.90
9215;DHT22;4642;51.364;6.788;2023-09-30T03:52:32;10.50;99.90
9215;DHT22;4642;51.364;6.788;2023-09-30T03:54:59;10.50;99.90
9215;DHT22;4642;51.364;6.788;2023-09-30T03:57:25;10.50;99.90
9215;DHT22;4642;51.364;6.788;2023-09-30T03:59:52;10.40;99.90
9215;DHT22;4642;51.364;6.788;2023-09-30T04:02:17;10.50;99.90
9215;DHT22;4642;51.364;6.788;2023-09-30T04:04:44;10.50;99.90
9215;DHT22;4642;51.364;6.788;2023-09-30T04:07:11;10.60;99.90
9215;DHT22;4642;51.364;6.788;2023-09-30T04:09:37;10.50;99.90
9215;DHT22;4642;51.364;6.788;2023-09-30T04:12:02;10.50;99.90
9215;DHT22;4642;51.364;6.788;2023-09-30T04:14:28;10.50;99.90
9215;DHT22;4642;51.364;6.788;2023-09-30T04:16:54;10.50;99.90
9215;DHT22;4642;51.364;6.788;2023-09-30T04:19:19;10.50;99.90
9215;DHT22;4642;51.364;6.788;2023-09-30T04:21:45;10.60;99.90
9215;DHT22;4642;51.364;6.788;2023-09-30T04:24:11;10.60;99.90
9215;DHT22;4642;51.364;6.788;2023-09-30T04:26:36;10.50;99.90
9215;DHT22;4642;51.364;6.788;2023-09-30T04:29:02;10.50;99.90
9215;DHT22;4642;51.364;6.788;2023-09-30T04:31:37;10.40;99.90
9215;DHT22;4642;51.364;6.788;2023-09-30T04:34:04;10.40;99.90
9215;DHT22;4642;51.364;6.788;2023-09-30T04:36:30;10.50;99.90
9215;DHT22;4642;51.364;6.788;2023-09-30T04:38:56;10.50;99.90
9215;DHT22;4642;51.364;6.788;2023-09-30T04:41:21;10.40;99.90
9215;DHT22;4642;51.364;6.788;2023-09-30T04:43:47;10.50;99.90
9215;DHT22;4642;51.364;6.788;2023-09-30T04:46:13;10.40;99.90
9215;DHT22;4642;51.364;6.788;2023-09-30T04:48:39;10.40;99.90
9215;DHT22;4642;51.364;6.788;2023-09-30T04:51:08;10.40;99.90
9215;DHT22;4642;51.364;6.788;2023-09-30T04:53:34;10.40;99.90
9215;DHT22;4642;51.364;6.788;2023-09-30T04:56:00;10.40;99.90
9215;DHT22;4642;51.364;6.788;2023-09-30T04:58:26;10.40;99.90
9215;DHT22;4642;51.364;6.788;2023-09-30T05:00:52;10.40;99.90
9215;DHT22;4642;51.364;6.788;2023-09-30T05:03:17;10.30;99.90
9215;DHT22;4642;51.364;6.788;2023-09-30T05:05:44;10.30;99.90
9215;DHT22;4642;51.364;6.788;2023-09-30T05:08:10;10.20;99.90
9215;DHT22;4642;51.364;6.788;2023-09-30T05:10:38;10.20;99.90
9215;DHT22;4642;51.364;6.788;2023-09-30T05:13:03;10.20;99.90
9215;DHT22;4642;51.364;6.788;2023-09-30T05:15:29;10.20;99.90
9215;DHT22;4642;51.364;6.788;2023-09-30T05:17:57;10.20;99.90
9215;DHT22;4642;51.364;6.788;2023-09-30T05:20:23;10.20;99.90
9215;DHT22;4642;51.364;6.788;2023-09-30T05:22:49;10.20;99.90
9215;DHT22;4642;51.364;6.788;2023-09-30T05:25:16;10.20;99.90
9215;DHT22;4642;51.364;6.788;2023-09-30T05:27:42;10.20;99.90
9215;DHT22;4642;51.364;6.788;2023-09-30T05:30:08;10.10;99.90
9215;DHT22;4642;51.364;6.788;2023-09-30T05:32:36;10.10;99.90
9215;DHT22;4642;51.364;6.788;2023-09-30T05:35:05;10.10;99.90
9215;DHT22;4642;51.364;6.788;2023-09-30T05:37:31;10.10;99.90
9215;DHT22;4642;51.364;6.788;2023-09-30T05:39:56;10.10;99.90
9215;DHT22;4642;51.364;6.788;2023-09-30T05:42:22;10.10;99.90
9215;DHT22;4642;51.364;6.788;2023-09-30T05:44:47;10.00;99.90
9215;DHT22;4642;51.364;6.788;2023-09-30T05:47:14;10.00;99.90
9215;DHT22;4642;51.364;6.788;2023-09-30T05:49:41;10.00;99.90
9215;DHT22;4642;51.364;6.788;2023-09-30T05:52:07;10.00;99.90
9215;DHT22;4642;51.364;6.788;2023-09-30T05:54:32;10.00;99.90
9215;DHT22;4642;51.364;6.788;2023-09-30T05:56:58;9.90;99.90
9215;DHT22;4642;51.364;6.788;2023-09-30T05:59:25;9.90;99.90
9215;DHT22;4642;51.364;6.788;2023-09-30T06:01:51;9.90;99.90
9215;DHT22;4642;51.364;6.788;2023-09-30T06:04:17;9.80;99.90
9215;DHT22;4642;51.364;6.788;2023-09-30T06:06:42;9.90;99.90
9215;DHT22;4642;51.364;6.788;2023-09-30T06:09:08;9.90;99.90
9215;DHT22;4642;51.364;6.788;2023-09-30T06:11:34;9.90;99.90
9215;DHT22;4642;51.364;6.788;2023-09-30T06:14:01;9.90;99.90
9215;DHT22;4642;51.364;6.788;2023-09-30T06:16:27;10.00;99.90
9215;DHT22;4642;51.364;6.788;2023-09-30T06:18:53;10.00;99.90
9215;DHT22;4642;51.364;6.788;2023-09-30T06:21:20;10.10;99.90
9215;DHT22;4642;51.364;6.788;2023-09-30T06:23:49;10.10;99.90
9215;DHT22;4642;51.364;6.788;2023-09-30T06:26:17;10.20;99.90
9215;DHT22;4642;51.364;6.788;2023-09-30T06:28:43;10.30;99.90
9215;DHT22;4642;51.364;6.788;2023-09-30T06:31:10;10.40;99.90
9215;DHT22;4642;51.364;6.788;2023-09-30T06:33:37;10.50;99.90
9215;DHT22;4642;51.364;6.788;2023-09-30T06:36:13;10.50;99.90
9215;DHT22;4642;51.364;6.788;2023-09-30T06:38:39;10.60;99.90
9215;DHT22;4642;51.364;6.788;2023-09-30T06:41:05;10.60;99.90
9215;DHT22;4642;51.364;6.788;2023-09-30T06:43:32;10.60;99.90
9215;DHT22;4642;51.364;6.788;2023-09-30T06:45:58;10.70;99.90
9215;DHT22;4642;51.364;6.788;2023-09-30T06:48:24;10.80;99.90
9215;DHT22;4642;51.364;6.788;2023-09-30T06:50:50;10.80;99.90
9215;DHT22;4642;51.364;6.788;2023-09-30T06:53:16;10.80;99.90
9215;DHT22;4642;51.364;6.788;2023-09-30T06:55:42;10.90;99.90
9215;DHT22;4642;51.364;6.788;2023-09-30T06:58:09;11.00;99.90
9215;DHT22;4642;51.364;6.788;2023-09-30T07:00:36;11.00;99.90
9215;DHT22;4642;51.364;6.788;2023-09-30T07:03:02;11.00;99.90
9215;DHT22;4642;51.364;6.788;2023-09-30T07:05:28;11.10;99.90
9215;DHT22;4642;51.364;6.788;2023-09-30T07:07:54;11.10;99.90
9215;DHT22;4642;51.364;6.788;2023-09-30T07:10:20;11.20;99.90
9215;DHT22;4642;51.364;6.788;2023-09-30T07:12:45;11.30;99.90
9215;DHT22;4642;51.364;6.788;2023-09-30T07:15:11;11.30;99.90
9215;DHT22;4642;51.364;6.788;2023-09-30T07:17:37;11.30;99.90
9215;DHT22;4642;51.364;6.788;2023-09-30T07:20:03;11.40;99.90
9215;DHT22;4642;51.364;6.788;2023-09-30T07:22:30;11.50;99.90
9215;DHT22;4642;51.364;6.788;2023-09-30T07:24:56;11.50;99.90
9215;DHT22;4642;51.364;6.788;2023-09-30T07:27:23;11.60;99.90
9215;DHT22;4642;51.364;6.788;2023-09-30T07:29:49;11.60;99.90
9215;DHT22;4642;51.364;6.788;2023-09-30T07:32:14;11.70;99.90
9215;DHT22;4642;51.364;6.788;2023-09-30T07:34:40;11.80;99.90
9215;DHT22;4642;51.364;6.788;2023-09-30T07:37:06;11.80;99.90
9215;DHT22;4642;51.364;6.788;2023-09-30T07:39:31;11.80;99.90
9215;DHT22;4642;51.364;6.788;2023-09-30T07:41:57;11.90;99.90
9215;DHT22;4642;51.364;6.788;2023-09-30T07:44:22;12.00;99.90
9215;DHT22;4642;51.364;6.788;2023-09-30T07:46:48;12.00;99.90
9215;DHT22;4642;51.364;6.788;2023-09-30T07:49:14;12.10;99.90
9215;DHT22;4642;51.364;6.788;2023-09-30T07:51:40;12.20;99.90
9215;DHT22;4642;51.364;6.788;2023-09-30T07:54:06;12.30;99.90
9215;DHT22;4642;51.364;6.788;2023-09-30T07:56:31;12.40;99.90
9215;DHT22;4642;51.364;6.788;2023-09-30T07:58:57;12.50;99.90
9215;DHT22;4642;51.364;6.788;2023-09-30T08:01:23;12.60;99.90
9215;DHT22;4642;51.364;6.788;2023-09-30T08:03:48;12.60;99.90
9215;DHT22;4642;51.364;6.788;2023-09-30T08:06:14;12.70;99.90
9215;DHT22;4642;51.364;6.788;2023-09-30T08:08:40;12.80;99.90
9215;DHT22;4642;51.364;6.788;2023-09-30T08:11:06;12.90;99.90
9215;DHT22;4642;51.364;6.788;2023-09-30T08:13:32;12.90;99.90
9215;DHT22;4642;51.364;6.788;2023-09-30T08:16:01;13.00;99.90
9215;DHT22;4642;51.364;6.788;2023-09-30T08:18:26;13.00;99.90
9215;DHT22;4642;51.364;6.788;2023-09-30T08:20:52;13.10;99.90
9215;DHT22;4642;51.364;6.788;2023-09-30T08:23:17;13.20;99.90
9215;DHT22;4642;51.364;6.788;2023-09-30T08:25:43;13.20;99.90
9215;DHT22;4642;51.364;6.788;2023-09-30T08:28:09;13.30;99.90
9215;DHT22;4642;51.364;6.788;2023-09-30T08:30:35;13.30;99.90
9215;DHT22;4642;51.364;6.788;2023-09-30T08:33:02;13.40;99.90
9215;DHT22;4642;51.364;6.788;2023-09-30T08:35:35;13.50;99.90
9215;DHT22;4642;51.364;6.788;2023-09-30T08:38:01;13.50;99.90
9215;DHT22;4642;51.364;6.788;2023-09-30T08:40:27;13.60;99.90
9215;DHT22;4642;51.364;6.788;2023-09-30T08:42:53;13.60;99.90
9215;DHT22;4642;51.364;6.788;2023-09-30T08:45:19;13.70;99.90
9215;DHT22;4642;51.364;6.788;2023-09-30T08:47:45;13.70;99.90
9215;DHT22;4642;51.364;6.788;2023-09-30T08:50:12;13.80;99.90
9215;DHT22;4642;51.364;6.788;2023-09-30T08:52:40;13.80;99.90
9215;DHT22;4642;51.364;6.788;2023-09-30T08:55:10;13.90;99.90
9215;DHT22;4642;51.364;6.788;2023-09-30T08:57:41;13.90;99.90
9215;DHT22;4642;51.364;6.788;2023-09-30T09:00:11;14.00;99.90
9215;DHT22;4642;51.364;6.788;2023-09-30T09:02:37;14.10;99.90
9215;DHT22;4642;51.364;6.788;2023-09-30T09:05:03;14.20;99.90
9215;DHT22;4642;51.364;6.788;2023-09-30T09:07:29;14.30;99.90
9215;DHT22;4642;51.364;6.788;2023-09-30T09:10:09;14.40;99.90
9215;DHT22;4642;51.364;6.788;2023-09-30T09:12:37;14.40;99.90
9215;DHT22;4642;51.364;6.788;2023-09-30T09:15:05;14.30;99.90
9215;DHT22;4642;51.364;6.788;2023-09-30T09:17:43;14.50;99.90
9215;DHT22;4642;51.364;6.788;2023-09-30T09:20:10;14.70;99.90
9215;DHT22;4642;51.364;6.788;2023-09-30T09:22:43;14.70;99.90
9215;DHT22;4642;51.364;6.788;2023-09-30T09:25:10;14.70;99.90
9215;DHT22;4642;51.364;6.788;2023-09-30T09:27:36;14.80;99.90
9215;DHT22;4642;51.364;6.788;2023-09-30T09:30:18;15.00;99.90
9215;DHT22;4642;51.364;6.788;2023-09-30T09:33:00;15.00;99.90
9215;DHT22;4642;51.364;6.788;2023-09-30T09:35:26;15.10;99.90
9215;DHT22;4642;51.364;6.788;2023-09-30T09:37:59;15.20;99.90
9215;DHT22;4642;51.364;6.788;2023-09-30T09:40:27;15.30;99.90
9215;DHT22;4642;51.364;6.788;2023-09-30T09:42:54;15.40;99.90
9215;DHT22;4642;51.364;6.788;2023-09-30T09:45:22;15.50;99.90
9215;DHT22;4642;51.364;6.788;2023-09-30T09:47:49;15.60;99.90
9215;DHT22;4642;51.364;6.788;2023-09-30T09:50:17;15.60;99.90
9215;DHT22;4642;51.364;6.788;2023-09-30T09:52:43;15.80;99.90
9215;DHT22;4642;51.364;6.788;2023-09-30T09:55:15;15.80;99.90
9215;DHT22;4642;51.364;6.788;2023-09-30T09:57:41;15.80;99.90
9215;DHT22;4642;51.364;6.788;2023-09-30T10:00:11;16.00;99.90
9215;DHT22;4642;51.364;6.788;2023-09-30T10:02:40;16.10;99.90
9215;DHT22;4642;51.364;6.788;2023-09-30T10:05:07;16.00;99.90
9215;DHT22;4642;51.364;6.788;2023-09-30T10:07:52;16.00;99.90
9215;DHT22;4642;51.364;6.788;2023-09-30T10:10:21;16.00;99.90
9215;DHT22;4642;51.364;6.788;2023-09-30T10:12:47;15.90;99.90
9215;DHT22;4642;51.364;6.788;2023-09-30T10:18:01;16.00;99.90
9215;DHT22;4642;51.364;6.788;2023-09-30T10:20:35;16.10;99.90
9215;DHT22;4642;51.364;6.788;2023-09-30T10:23:20;16.20;99.90
9215;DHT22;4642;51.364;6.788;2023-09-30T10:25:49;16.20;99.90
9215;DHT22;4642;51.364;6.788;2023-09-30T10:31:22;16.50;99.90
9215;DHT22;4642;51.364;6.788;2023-09-30T10:36:38;16.60;99.90
9215;DHT22;4642;51.364;6.788;2023-09-30T10:39:05;16.70;99.90
9215;DHT22;4642;51.364;6.788;2023-09-30T10:46:51;16.90;99.90
9215;DHT22;4642;51.364;6.788;2023-09-30T10:51:56;17.00;99.90
9215;DHT22;4642;51.364;6.788;2023-09-30T10:54:23;17.10;99.90
9215;DHT22;4642;51.364;6.788;2023-09-30T10:56:49;17.10;99.90
9215;DHT22;4642;51.364;6.788;2023-09-30T10:59:22;17.10;99.90
9215;DHT22;4642;51.364;6.788;2023-09-30T11:01:48;17.10;99.90
9215;DHT22;4642;51.364;6.788;2023-09-30T11:04:14;17.20;99.90
9215;DHT22;4642;51.364;6.788;2023-09-30T11:06:41;17.10;99.90
9215;DHT22;4642;51.364;6.788;2023-09-30T11:09:08;17.00;99.90
9215;DHT22;4642;51.364;6.788;2023-09-30T11:11:44;17.00;99.90
9215;DHT22;4642;51.364;6.788;2023-09-30T11:14:24;17.00;99.90
9215;DHT22;4642;51.364;6.788;2023-09-30T11:16:52;17.00;99.90
9215;DHT22;4642;51.364;6.788;2023-09-30T11:19:18;17.00;99.90
9215;DHT22;4642;51.364;6.788;2023-09-30T11:21:51;17.10;99.90
9215;DHT22;4642;51.364;6.788;2023-09-30T11:24:17;17.20;1.00
9215;DHT22;4642;51.364;6.788;2023-09-30T11:26:44;17.10;22.80
9215;DHT22;4642;51.364;6.788;2023-09-30T11:29:11;17.20;99.90
9215;DHT22;4642;51.364;6.788;2023-09-30T11:31:38;17.40;1.00
9215;DHT22;4642;51.364;6.788;2023-09-30T11:34:04;17.50;99.90
9215;DHT22;4642;51.364;6.788;2023-09-30T11:36:30;17.60;1.00
9215;DHT22;4642;51.364;6.788;2023-09-30T11:39:00;17.60;99.90
9215;DHT22;4642;51.364;6.788;2023-09-30T11:41:42;17.60;1.00
9215;DHT22;4642;51.364;6.788;2023-09-30T11:44:10;17.60;99.90
9215;DHT22;4642;51.364;6.788;2023-09-30T11:46:56;17.60;1.00
9215;DHT22;4642;51.364;6.788;2023-09-30T11:49:34;17.60;99.90
9215;DHT22;4642;51.364;6.788;2023-09-30T11:52:02;17.60;1.00
9215;DHT22;4642;51.364;6.788;2023-09-30T11:54:39;17.70;1.00
9215;DHT22;4642;51.364;6.788;2023-09-30T11:57:16;17.80;13.90
9215;DHT22;4642;51.364;6.788;2023-09-30T11:59:43;17.80;1.00
9215;DHT22;4642;51.364;6.788;2023-09-30T12:02:09;17.90;1.00
9215;DHT22;4642;51.364;6.788;2023-09-30T12:04:36;17.90;1.00
9215;DHT22;4642;51.364;6.788;2023-09-30T12:07:01;18.00;1.00
9215;DHT22;4642;51.364;6.788;2023-09-30T12:09:27;18.00;1.00
9215;DHT22;4642;51.364;6.788;2023-09-30T12:11:54;18.00;23.50
9215;DHT22;4642;51.364;6.788;2023-09-30T12:14:21;18.00;1.00
9215;DHT22;4642;51.364;6.788;2023-09-30T12:16:47;18.00;99.90
9215;DHT22;4642;51.364;6.788;2023-09-30T12:19:13;17.90;1.00
9215;DHT22;4642;51.364;6.788;2023-09-30T12:21:41;17.90;1.00
9215;DHT22;4642;51.364;6.788;2023-09-30T12:24:07;17.90;1.00
9215;DHT22;4642;51.364;6.788;2023-09-30T12:26:35;17.90;1.00
9215;DHT22;4642;51.364;6.788;2023-09-30T12:29:01;18.00;1.00
9215;DHT22;4642;51.364;6.788;2023-09-30T12:31:26;18.10;41.90
9215;DHT22;4642;51.364;6.788;2023-09-30T12:33:52;18.20;1.00
9215;DHT22;4642;51.364;6.788;2023-09-30T12:36:19;18.30;1.00
9215;DHT22;4642;51.364;6.788;2023-09-30T12:38:45;18.50;99.90
9215;DHT22;4642;51.364;6.788;2023-09-30T12:41:10;18.40;99.90
9215;DHT22;4642;51.364;6.788;2023-09-30T12:43:37;18.60;1.00
9215;DHT22;4642;51.364;6.788;2023-09-30T12:46:03;18.60;1.00
9215;DHT22;4642;51.364;6.788;2023-09-30T12:48:30;18.60;1.00
9215;DHT22;4642;51.364;6.788;2023-09-30T12:50:55;18.70;1.00
9215;DHT22;4642;51.364;6.788;2023-09-30T12:53:21;18.60;1.00
9215;DHT22;4642;51.364;6.788;2023-09-30T12:55:47;18.60;99.90
9215;DHT22;4642;51.364;6.788;2023-09-30T12:58:12;18.60;99.90
9215;DHT22;4642;51.364;6.788;2023-09-30T13:00:38;18.70;1.00
9215;DHT22;4642;51.364;6.788;2023-09-30T13:03:04;18.70;29.00
9215;DHT22;4642;51.364;6.788;2023-09-30T13:05:29;18.80;99.90
9215;DHT22;4642;51.364;6.788;2023-09-30T13:07:56;18.80;99.90
9215;DHT22;4642;51.364;6.788;2023-09-30T13:10:22;18.80;99.90
9215;DHT22;4642;51.364;6.788;2023-09-30T13:12:48;18.80;1.00
9215;DHT22;4642;51.364;6.788;2023-09-30T13:15:17;18.90;1.00
9215;DHT22;4642;51.364;6.788;2023-09-30T13:17:43;18.90;99.90
9215;DHT22;4642;51.364;6.788;2023-09-30T13:20:10;18.90;1.00
9215;DHT22;4642;51.364;6.788;2023-09-30T13:22:37;18.90;99.90
9215;DHT22;4642;51.364;6.788;2023-09-30T13:25:07;18.90;99.90
9215;DHT22;4642;51.364;6.788;2023-09-30T13:27:38;18.90;99.90
9215;DHT22;4642;51.364;6.788;2023-09-30T13:30:06;18.80;1.00
9215;DHT22;4642;51.364;6.788;2023-09-30T13:32:33;18.80;1.00
9215;DHT22;4642;51.364;6.788;2023-09-30T13:35:02;18.80;57.70
9215;DHT22;4642;51.364;6.788;2023-09-30T13:37:28;18.80;1.00
9215;DHT22;4642;51.364;6.788;2023-09-30T13:40:01;18.60;99.90
9215;DHT22;4642;51.364;6.788;2023-09-30T13:42:27;18.80;31.60
9215;DHT22;4642;51.364;6.788;2023-09-30T13:44:53;18.70;99.90
9215;DHT22;4642;51.364;6.788;2023-09-30T13:47:19;18.80;99.90
9215;DHT22;4642;51.364;6.788;2023-09-30T13:49:45;18.60;99.90
9215;DHT22;4642;51.364;6.788;2023-09-30T13:52:11;18.70;99.90
9215;DHT22;4642;51.364;6.788;2023-09-30T13:54:37;18.70;1.00
9215;DHT22;4642;51.364;6.788;2023-09-30T13:57:02;18.70;48.40
9215;DHT22;4642;51.364;6.788;2023-09-30T13:59:28;18.70;1.00
9215;DHT22;4642;51.364;6.788;2023-09-30T14:01:54;18.70;1.00
9215;DHT22;4642;51.364;6.788;2023-09-30T14:04:19;18.70;1.00
9215;DHT22;4642;51.364;6.788;2023-09-30T14:06:45;18.70;1.00
9215;DHT22;4642;51.364;6.788;2023-09-30T14:09:11;18.70;31.90
9215;DHT22;4642;51.364;6.788;2023-09-30T14:11:41;18.60;1.00
9215;DHT22;4642;51.364;6.788;2023-09-30T14:14:07;18.60;92.40
9215;DHT22;4642;51.364;6.788;2023-09-30T14:16:35;18.70;99.90
9215;DHT22;4642;51.364;6.788;2023-09-30T14:19:01;18.70;1.00
9215;DHT22;4642;51.364;6.788;2023-09-30T14:21:26;18.70;1.00
9215;DHT22;4642;51.364;6.788;2023-09-30T14:23:53;18.70;91.30
9215;DHT22;4642;51.364;6.788;2023-09-30T14:26:19;18.70;99.90
9215;DHT22;4642;51.364;6.788;2023-09-30T14:28:44;18.70;99.90
9215;DHT22;4642;51.364;6.788;2023-09-30T14:31:10;18.70;9.80
9215;DHT22;4642;51.364;6.788;2023-09-30T14:33:36;18.80;1.00
9215;DHT22;4642;51.364;6.788;2023-09-30T14:36:03;18.80;99.90
9215;DHT22;4642;51.364;6.788;2023-09-30T14:38:31;18.80;1.00
9215;DHT22;4642;51.364;6.788;2023-09-30T14:40:56;18.80;1.00
9215;DHT22;4642;51.364;6.788;2023-09-30T14:43:22;18.70;99.90
9215;DHT22;4642;51.364;6.788;2023-09-30T14:45:47;18.70;1.00
9215;DHT22;4642;51.364;6.788;2023-09-30T14:48:13;18.70;1.00
9215;DHT22;4642;51.364;6.788;2023-09-30T14:50:48;18.70;99.90
9215;DHT22;4642;51.364;6.788;2023-09-30T14:53:15;18.70;29.80
9215;DHT22;4642;51.364;6.788;2023-09-30T14:55:41;18.70;99.90
9215;DHT22;4642;51.364;6.788;2023-09-30T14:58:07;18.70;1.00
9215;DHT22;4642;51.364;6.788;2023-09-30T15:00:32;18.60;1.00
9215;DHT22;4642;51.364;6.788;2023-09-30T15:02:58;18.60;99.00
9215;DHT22;4642;51.364;6.788;2023-09-30T15:05:23;18.60;1.00
9215;DHT22;4642;51.364;6.788;2023-09-30T15:07:49;18.60;99.90
9215;DHT22;4642;51.364;6.788;2023-09-30T15:10:16;18.60;99.90
9215;DHT22;4642;51.364;6.788;2023-09-30T15:12:41;18.60;1.00
9215;DHT22;4642;51.364;6.788;2023-09-30T15:15:07;18.70;1.00
9215;DHT22;4642;51.364;6.788;2023-09-30T15:17:34;18.70;99.90
9215;DHT22;4642;51.364;6.788;2023-09-30T15:20:00;18.70;1.00
9215;DHT22;4642;51.364;6.788;2023-09-30T15:22:26;18.80;1.00
9215;DHT22;4642;51.364;6.788;2023-09-30T15:24:51;18.80;1.00
9215;DHT22;4642;51.364;6.788;2023-09-30T15:27:17;18.80;1.00
9215;DHT22;4642;51.364;6.788;2023-09-30T15:29:44;18.90;99.90
9215;DHT22;4642;51.364;6.788;2023-09-30T15:32:09;18.80;1.00
9215;DHT22;4642;51.364;6.788;2023-09-30T15:34:36;18.80;1.00
9215;DHT22;4642;51.364;6.788;2023-09-30T15:37:03;18.70;1.00
9215;DHT22;4642;51.364;6.788;2023-09-30T15:39:37;18.60;1.00
9215;DHT22;4642;51.364;6.788;2023-09-30T15:42:03;18.40;1.00
9215;DHT22;4642;51.364;6.788;2023-09-30T15:44:28;18.40;1.00
9215;DHT22;4642;51.364;6.788;2023-09-30T15:46:55;18.40;1.00
9215;DHT22;4642;51.364;6.788;2023-09-30T15:49:24;18.40;1.00
9215;DHT22;4642;51.364;6.788;2023-09-30T15:51:50;18.40;1.00
9215;DHT22;4642;51.364;6.788;2023-09-30T15:54:15;18.40;1.00
9215;DHT22;4642;51.364;6.788;2023-09-30T15:56:41;18.40;1.00
9215;DHT22;4642;51.364;6.788;2023-09-30T15:59:08;18.30;1.00
9215;DHT22;4642;51.364;6.788;2023-09-30T16:01:34;18.30;1.00
9215;DHT22;4642;51.364;6.788;2023-09-30T16:03:59;18.30;1.00
9215;DHT22;4642;51.364;6.788;2023-09-30T16:06:25;18.20;1.00
9215;DHT22;4642;51.364;6.788;2023-09-30T16:08:51;18.20;31.60
9215;DHT22;4642;51.364;6.788;2023-09-30T16:11:16;18.10;96.90
9215;DHT22;4642;51.364;6.788;2023-09-30T16:13:42;18.10;99.90
9215;DHT22;4642;51.364;6.788;2023-09-30T16:16:08;18.00;99.90
9215;DHT22;4642;51.364;6.788;2023-09-30T16:18:35;17.90;99.90